Time;durP1;ratioP1;P1;durP2;ratioP2;P2;SDS_P1;SDS_P2;PMS_P1;PMS_P2;Temp;Humidity;BMP_temperature;BMP_pressure;BME280_temperature;BME280_humidity;BME280_pressure;Samples;Min_cycle;Max_cycle;Signal;HPM_P1;HPM_P2
2022/04/27 00:01:32;;;;;;;4.97;3.30;;;10.70;99.90;;;;;;5092676;28;20670;-68
2022/04/27 00:03:59;;;;;;;4.30;3.17;;;10.70;99.90;;;;;;5092996;28;20627;-67
2022/04/27 00:06:25;;;;;;;4.00;3.20;;;10.70;99.90;;;;;;5092705;28;20435;-68
2022/04/27 00:08:52;;;;;;;5.50;3.27;;;10.70;99.90;;;;;;5092874;28;20568;-68
2022/04/27 00:11:19;;;;;;;4.20;3.20;;;10.70;99.90;;;;;;5092824;28;20203;-69
2022/04/27 00:13:47;;;;;;;4.00;3.20;;;10.60;99.90;;;;;;5092361;28;20211;-67
2022/04/27 00:16:14;;;;;;;4.90;3.40;;;10.60;99.90;;;;;;5092815;28;20572;-67
2022/04/27 00:18:41;;;;;;;3.37;2.73;;;10.60;99.90;;;;;;5092661;28;20630;-66
2022/04/27 00:21:08;;;;;;;3.30;2.83;;;10.60;99.90;;;;;;5092670;28;20625;-68
2022/04/27 00:23:35;;;;;;;4.20;3.03;;;10.60;99.90;;;;;;5092422;28;20231;-67
2022/04/27 00:26:01;;;;;;;4.47;3.40;;;10.60;99.90;;;;;;5092547;28;20210;-67
2022/04/27 00:28:29;;;;;;;6.30;3.23;;;10.60;99.90;;;;;;5092210;28;20218;-69
2022/04/27 00:30:57;;;;;;;3.90;3.10;;;10.60;99.90;;;;;;5092193;28;20200;-67
2022/04/27 00:33:24;;;;;;;5.30;3.47;;;10.60;99.90;;;;;;5092517;28;20206;-68
2022/04/27 00:35:51;;;;;;;5.43;3.70;;;10.60;99.90;;;;;;5092350;28;20203;-67
2022/04/27 00:38:17;;;;;;;5.37;3.30;;;10.60;99.90;;;;;;5092446;28;20661;-67
2022/04/27 00:40:45;;;;;;;3.73;3.20;;;10.60;99.90;;;;;;5092233;28;20236;-67
2022/04/27 00:43:14;;;;;;;4.13;3.40;;;10.60;99.90;;;;;;5092419;28;20605;-67
2022/04/27 00:45:41;;;;;;;3.77;3.13;;;10.60;99.90;;;;;;5092184;28;20253;-67
2022/04/27 00:48:10;;;;;;;5.03;3.40;;;10.60;99.90;;;;;;5091948;28;20208;-67
2022/04/27 00:50:37;;;;;;;5.47;3.40;;;10.60;99.90;;;;;;5091725;28;20269;-68
2022/04/27 00:53:04;;;;;;;5.63;3.53;;;10.50;99.90;;;;;;5092194;28;20205;-68
2022/04/27 00:55:31;;;;;;;7.13;3.33;;;10.50;99.90;;;;;;5092001;28;20196;-68
2022/04/27 00:57:59;;;;;;;5.87;3.60;;;10.40;99.90;;;;;;5092080;28;20654;-67
2022/04/27 01:00:26;;;;;;;4.47;3.50;;;10.40;99.90;;;;;;5091726;28;20265;-67
2022/04/27 01:02:53;;;;;;;6.50;3.47;;;10.40;99.90;;;;;;5091658;28;20227;-66
2022/04/27 01:05:22;;;;;;;3.77;3.17;;;10.40;99.90;;;;;;5092050;28;20230;-67
2022/04/27 01:07:49;;;;;;;6.17;3.20;;;10.40;99.90;;;;;;5091948;28;20208;-67
2022/04/27 01:10:16;;;;;;;4.43;3.50;;;10.40;99.90;;;;;;5091686;28;20214;-69
2022/04/27 01:12:43;;;;;;;4.07;3.43;;;10.40;99.90;;;;;;5091406;28;20211;-69
2022/04/27 01:15:10;;;;;;;4.63;3.63;;;10.40;99.90;;;;;;5091976;28;20287;-67
2022/04/27 01:17:37;;;;;;;4.63;3.30;;;10.40;99.90;;;;;;5091761;28;20683;-68
2022/04/27 01:20:06;;;;;;;8.23;3.73;;;10.30;99.90;;;;;;5091929;28;20203;-67
2022/04/27 01:22:34;;;;;;;4.17;3.40;;;10.30;99.90;;;;;;5091381;28;20200;-68
2022/04/27 01:25:00;;;;;;;3.60;3.10;;;10.30;99.90;;;;;;5091381;28;20223;-68
2022/04/27 01:27:27;;;;;;;4.37;3.23;;;10.30;99.90;;;;;;5091241;28;20203;-67
2022/04/27 01:29:54;;;;;;;5.00;3.53;;;10.30;99.90;;;;;;5091482;28;20208;-67
2022/04/27 01:32:21;;;;;;;5.77;3.50;;;10.30;99.90;;;;;;5091387;28;20199;-67
2022/04/27 01:34:48;;;;;;;4.57;3.60;;;10.30;99.90;;;;;;5091607;28;20196;-67
2022/04/27 01:40:00;;;;;;;5.73;3.67;;;10.30;99.90;;;;;;5091461;28;20606;-66
2022/04/27 01:42:27;;;;;;;5.63;3.77;;;10.20;99.90;;;;;;5091540;28;20201;-67
2022/04/27 01:44:54;;;;;;;6.27;4.03;;;10.10;99.90;;;;;;5091433;28;20253;-66
2022/04/27 01:47:21;;;;;;;5.67;4.13;;;10.20;99.90;;;;;;5091477;28;20211;-68
2022/04/27 01:49:47;;;;;;;5.47;3.80;;;10.10;99.90;;;;;;5091133;28;20236;-67
2022/04/27 01:55:00;;;;;;;5.40;4.07;;;10.10;99.90;;;;;;5091289;28;20189;-67
2022/04/27 01:57:26;;;;;;;5.80;4.10;;;10.10;99.90;;;;;;5091378;28;20208;-67
2022/04/27 01:59:54;;;;;;;5.70;4.07;;;10.10;99.90;;;;;;5091483;28;20564;-68
2022/04/27 02:02:21;;;;;;;6.10;4.00;;;10.00;99.90;;;;;;5091316;28;20210;-67
2022/04/27 02:04:48;;;;;;;5.03;3.90;;;10.00;99.90;;;;;;5091408;28;20224;-67
2022/04/27 02:07:15;;;;;;;7.60;4.20;;;10.00;99.90;;;;;;5091332;28;20207;-66
2022/04/27 02:09:42;;;;;;;5.10;3.57;;;10.00;99.90;;;;;;5090922;28;20212;-67
2022/04/27 02:12:10;;;;;;;5.47;4.00;;;10.00;99.90;;;;;;5095035;28;20225;-67
2022/04/27 02:14:37;;;;;;;6.87;3.90;;;10.00;99.90;;;;;;5094973;28;20204;-67
2022/04/27 02:17:04;;;;;;;8.07;4.20;;;10.00;99.90;;;;;;5095068;28;20200;-67
2022/04/27 02:19:31;;;;;;;7.80;4.10;;;10.00;99.90;;;;;;5094899;28;20215;-68
2022/04/27 02:21:58;;;;;;;6.57;3.93;;;10.00;99.90;;;;;;5094966;28;20210;-67
2022/04/27 02:24:26;;;;;;;8.57;4.43;;;9.90;99.90;;;;;;5094586;28;20223;-67
2022/04/27 02:26:54;;;;;;;5.97;4.50;;;9.90;99.90;;;;;;5094999;28;20659;-67
2022/04/27 02:29:22;;;;;;;7.13;4.30;;;9.90;99.90;;;;;;5094732;28;20212;-66
2022/04/27 02:31:49;;;;;;;5.47;4.23;;;9.90;99.90;;;;;;5094804;28;20207;-66
2022/04/27 02:34:16;;;;;;;5.90;3.87;;;9.90;99.90;;;;;;5094878;28;20565;-68
2022/04/27 02:36:43;;;;;;;6.33;4.00;;;9.80;99.90;;;;;;5094829;28;20210;-67
2022/04/27 02:39:10;;;;;;;7.43;3.97;;;9.80;99.90;;;;;;5094969;28;20226;-67
2022/04/27 02:41:37;;;;;;;5.37;4.07;;;9.80;99.90;;;;;;5094265;28;20208;-67
2022/04/27 02:44:04;;;;;;;7.13;4.20;;;9.70;99.90;;;;;;5094327;28;20709;-67
2022/04/27 02:46:32;;;;;;;6.07;3.83;;;9.70;99.90;;;;;;5094141;28;20211;-67
2022/04/27 02:51:49;;;;;;;8.87;4.43;;;9.70;99.90;;;;;;5094318;28;20194;-68
2022/04/27 02:54:16;;;;;;;5.10;4.30;;;9.70;99.90;;;;;;5093930;28;20195;-69
2022/04/27 02:56:43;;;;;;;6.03;4.20;;;9.60;99.90;;;;;;5094361;28;20296;-69
2022/04/27 02:59:10;;;;;;;6.40;4.00;;;9.60;99.90;;;;;;5094371;28;20262;-67
2022/04/27 03:01:39;;;;;;;5.77;3.93;;;9.60;99.90;;;;;;5093862;28;20227;-67
2022/04/27 03:04:06;;;;;;;4.83;3.80;;;9.60;99.90;;;;;;5094177;28;20618;-67
2022/04/27 03:06:33;;;;;;;4.97;4.00;;;9.50;99.90;;;;;;5093968;28;20203;-66
2022/04/27 03:09:00;;;;;;;6.03;4.50;;;9.50;99.90;;;;;;5094184;28;20676;-66
2022/04/27 03:11:26;;;;;;;8.37;3.97;;;9.50;99.90;;;;;;5093935;28;20635;-66
2022/04/27 03:13:53;;;;;;;6.27;4.20;;;9.50;99.90;;;;;;5094052;28;20316;-66
2022/04/27 03:16:20;;;;;;;6.27;4.63;;;9.40;99.90;;;;;;5093650;28;20207;-67
2022/04/27 03:18:48;;;;;;;6.87;4.50;;;9.40;99.90;;;;;;5094061;28;20208;-68
2022/04/27 03:21:15;;;;;;;7.57;4.57;;;9.40;99.90;;;;;;5093515;28;20208;-68
2022/04/27 03:23:42;;;;;;;5.40;4.23;;;9.30;99.90;;;;;;5093085;28;20227;-66
2022/04/27 03:26:08;;;;;;;9.60;4.23;;;9.30;99.90;;;;;;5093555;28;20227;-67
2022/04/27 03:28:35;;;;;;;9.57;5.13;;;9.30;99.90;;;;;;5093624;28;20208;-67
2022/04/27 03:31:02;;;;;;;8.63;4.93;;;9.30;99.90;;;;;;5093448;28;20216;-67
2022/04/27 03:33:29;;;;;;;8.23;5.07;;;9.20;99.90;;;;;;5093444;28;20282;-69
2022/04/27 03:35:57;;;;;;;7.50;4.73;;;9.10;99.90;;;;;;5093688;28;20676;-68
2022/04/27 03:38:24;;;;;;;7.30;4.90;;;9.10;99.90;;;;;;5093428;28;20535;-66
2022/04/27 03:40:51;;;;;;;6.13;4.40;;;9.10;99.90;;;;;;5093623;28;20204;-67
2022/04/27 03:43:17;;;;;;;6.80;4.50;;;9.10;99.90;;;;;;5093239;28;20214;-67
2022/04/27 03:45:44;;;;;;;6.60;4.40;;;9.10;99.90;;;;;;5093483;28;20227;-66
2022/04/27 03:48:11;;;;;;;5.73;4.27;;;9.10;99.90;;;;;;5093327;28;20223;-67
2022/04/27 03:50:38;;;;;;;4.63;3.83;;;9.10;99.90;;;;;;5092884;28;20232;-68
2022/04/27 03:53:06;;;;;;;5.57;4.00;;;9.20;99.90;;;;;;5093289;28;20702;-68
2022/04/27 03:55:34;;;;;;;7.63;4.37;;;9.20;99.90;;;;;;5093163;28;20200;-66
2022/04/27 03:58:01;;;;;;;6.10;4.60;;;9.20;99.90;;;;;;5091843;28;20235;-67
2022/04/27 04:00:28;;;;;;;9.70;4.30;;;9.20;99.90;;;;;;5092942;28;20249;-67
2022/04/27 04:02:55;;;;;;;5.93;4.00;;;9.20;99.90;;;;;;5093042;28;20203;-67
2022/04/27 04:05:22;;;;;;;6.07;4.23;;;9.30;99.90;;;;;;5092724;28;20608;-67
2022/04/27 04:07:49;;;;;;;6.93;4.07;;;9.30;99.90;;;;;;5092916;28;20459;-67
2022/04/27 04:10:17;;;;;;;6.60;4.10;;;9.30;99.90;;;;;;5093003;28;20243;-67
2022/04/27 04:12:45;;;;;;;5.27;3.97;;;9.30;99.90;;;;;;5092810;28;20210;-69
2022/04/27 04:15:12;;;;;;;5.60;4.27;;;9.40;99.90;;;;;;5092752;28;20257;-67
2022/04/27 04:17:40;;;;;;;5.07;3.87;;;9.40;99.90;;;;;;5092392;28;20216;-67
2022/04/27 04:20:09;;;;;;;4.83;4.07;;;9.50;99.90;;;;;;5092475;28;20212;-67
2022/04/27 04:22:35;;;;;;;5.93;4.40;;;9.50;99.90;;;;;;5092634;28;20200;-68
2022/04/27 04:30:32;;;;;;;4.90;3.77;;;9.60;99.90;;;;;;5092444;28;20184;-68
2022/04/27 04:32:59;;;;;;;6.47;3.83;;;9.70;99.90;;;;;;5092171;28;20563;-67
2022/04/27 04:35:26;;;;;;;5.17;3.73;;;9.80;99.90;;;;;;5092463;28;20196;-68
2022/04/27 04:37:54;;;;;;;6.50;4.10;;;9.80;99.90;;;;;;5092432;28;20290;-67
2022/04/27 04:40:21;;;;;;;5.97;4.40;;;9.90;99.90;;;;;;5092160;28;20586;-67
2022/04/27 04:42:49;;;;;;;5.97;3.87;;;10.00;99.90;;;;;;5092216;28;20208;-69
2022/04/27 04:45:15;;;;;;;5.80;4.07;;;10.00;99.90;;;;;;5092064;28;20224;-67
2022/04/27 04:47:43;;;;;;;4.40;3.40;;;10.10;99.90;;;;;;5092201;28;20295;-67
2022/04/27 04:50:11;;;;;;;5.67;3.53;;;10.20;99.90;;;;;;5091760;28;20293;-69
2022/04/27 04:52:38;;;;;;;5.17;3.80;;;10.30;99.90;;;;;;5092081;28;20619;-67
2022/04/27 04:55:05;;;;;;;5.70;3.43;;;10.40;99.90;;;;;;5091938;28;20200;-68
2022/04/27 04:57:32;;;;;;;4.43;3.03;;;10.50;99.90;;;;;;5091787;28;20211;-66
2022/04/27 05:00:00;;;;;;;6.07;3.33;;;10.60;99.90;;;;;;5091955;28;20204;-69
2022/04/27 05:02:30;;;;;;;4.60;3.23;;;10.80;99.90;;;;;;5091760;28;20320;-67
2022/04/27 05:04:57;;;;;;;5.83;3.67;;;10.90;99.90;;;;;;5092103;28;20227;-68
2022/04/27 05:07:23;;;;;;;7.00;3.50;;;11.00;99.90;;;;;;5091719;28;20204;-67
2022/04/27 05:09:50;;;;;;;4.43;3.27;;;11.10;99.90;;;;;;5091655;28;20213;-67
2022/04/27 05:12:17;;;;;;;5.97;3.60;;;11.30;99.90;;;;;;5091897;28;20204;-67
2022/04/27 05:14:44;;;;;;;6.50;4.37;;;11.40;99.90;;;;;;5091844;28;20204;-67
2022/04/27 05:17:12;;;;;;;5.00;3.73;;;11.50;99.90;;;;;;5091709;28;20208;-67
2022/04/27 05:19:39;;;;;;;5.97;3.70;;;11.70;99.90;;;;;;5091534;28;20203;-67
2022/04/27 05:22:05;;;;;;;5.97;3.73;;;11.80;99.90;;;;;;5091561;28;20212;-68
2022/04/27 05:24:32;;;;;;;5.27;3.60;;;11.90;99.90;;;;;;5091890;28;20203;-68
2022/04/27 05:26:59;;;;;;;5.83;3.33;;;12.00;99.90;;;;;;5091583;28;20559;-67
2022/04/27 05:32:12;;;;;;;3.40;3.00;;;12.20;99.90;;;;;;5091370;28;20237;-68
2022/04/27 05:34:39;;;;;;;4.43;3.40;;;12.30;99.90;;;;;;5094372;28;20208;-66
2022/04/27 05:37:05;;;;;;;4.07;2.80;;;12.30;99.90;;;;;;5097712;28;20211;-69
2022/04/27 05:39:32;;;;;;;4.50;3.20;;;12.40;99.90;;;;;;5091438;28;20235;-67
2022/04/27 05:41:59;;;;;;;3.97;3.00;;;12.50;99.90;;;;;;5091333;28;20210;-70
2022/04/27 05:44:27;;;;;;;3.77;3.03;;;12.60;99.90;;;;;;5091479;28;20206;-67
2022/04/27 05:46:55;;;;;;;5.00;3.47;;;12.60;99.90;;;;;;5094870;28;20220;-68
2022/04/27 05:49:23;;;;;;;4.23;3.27;;;12.70;99.90;;;;;;5095180;28;20290;-67
2022/04/27 05:51:51;;;;;;;3.90;3.27;;;12.80;99.90;;;;;;5095056;28;20188;-68
2022/04/27 05:54:18;;;;;;;4.50;3.50;;;12.90;99.90;;;;;;5095507;28;20204;-67
2022/04/27 05:56:45;;;;;;;5.20;3.03;;;12.90;99.90;;;;;;5095605;28;20788;-67
2022/04/27 05:59:12;;;;;;;4.57;3.40;;;13.00;99.90;;;;;;5095266;28;20207;-69
2022/04/27 06:01:39;;;;;;;4.23;3.20;;;13.10;99.90;;;;;;5095464;28;20204;-69
2022/04/27 06:04:06;;;;;;;4.57;3.37;;;13.20;99.90;;;;;;5095146;28;20287;-68
2022/04/27 06:06:34;;;;;;;5.87;3.30;;;13.20;99.90;;;;;;5094968;28;20230;-67
2022/04/27 06:09:01;;;;;;;3.77;3.30;;;13.20;99.90;;;;;;5095094;28;20561;-68
2022/04/27 06:11:28;;;;;;;4.80;3.30;;;13.30;99.90;;;;;;5095569;28;20674;-67
2022/04/27 06:13:55;;;;;;;4.83;3.40;;;13.30;99.90;;;;;;5094915;28;20203;-68
2022/04/27 06:16:23;;;;;;;5.60;3.63;;;13.30;99.90;;;;;;5095221;28;20202;-67
2022/04/27 06:18:50;;;;;;;5.87;3.40;;;13.40;99.90;;;;;;5094655;28;20215;-67
2022/04/27 06:21:17;;;;;;;5.87;3.80;;;13.40;99.90;;;;;;5094769;28;20200;-68
2022/04/27 06:23:45;;;;;;;4.50;3.40;;;13.50;99.90;;;;;;5094832;28;20597;-68
2022/04/27 06:26:13;;;;;;;4.00;3.20;;;13.50;99.90;;;;;;5094872;28;20235;-68
2022/04/27 06:28:40;;;;;;;5.40;3.40;;;13.50;99.90;;;;;;5094656;28;20406;-68
2022/04/27 06:31:07;;;;;;;3.67;3.10;;;13.40;99.90;;;;;;5094391;28;20223;-68
2022/04/27 06:33:34;;;;;;;6.37;3.50;;;13.50;99.90;;;;;;5094938;28;20200;-68
2022/04/27 06:36:01;;;;;;;5.33;3.30;;;13.40;99.90;;;;;;5094569;28;20573;-67
2022/04/27 06:38:28;;;;;;;4.07;3.00;;;13.50;99.90;;;;;;5094585;28;20227;-67
2022/04/27 06:40:56;;;;;;;4.73;3.10;;;13.50;99.90;;;;;;5094689;28;20212;-67
2022/04/27 06:43:23;;;;;;;5.17;3.37;;;13.60;99.90;;;;;;5094590;28;20204;-67
2022/04/27 06:45:50;;;;;;;4.80;3.53;;;13.60;99.90;;;;;;5094042;28;20224;-68
2022/04/27 06:48:16;;;;;;;6.03;3.53;;;13.60;99.90;;;;;;5094401;28;20211;-68
2022/04/27 06:50:43;;;;;;;7.27;3.23;;;13.70;99.90;;;;;;5093714;28;20236;-67
2022/04/27 06:53:10;;;;;;;3.33;2.87;;;13.80;99.90;;;;;;5094374;28;20208;-67
2022/04/27 06:55:38;;;;;;;4.17;2.97;;;13.80;99.90;;;;;;5094473;28;20231;-68
2022/04/27 06:58:06;;;;;;;6.23;3.13;;;13.80;99.90;;;;;;5093732;28;20200;-68
2022/04/27 07:00:33;;;;;;;4.43;3.00;;;13.80;99.90;;;;;;5094176;28;20566;-67
2022/04/27 07:03:00;;;;;;;4.00;3.20;;;13.90;99.90;;;;;;5094018;28;20774;-68
2022/04/27 07:05:28;;;;;;;4.00;2.93;;;14.00;99.90;;;;;;5094067;28;20540;-67
2022/04/27 07:07:55;;;;;;;4.13;3.20;;;14.00;99.90;;;;;;5094054;28;20204;-68
2022/04/27 07:10:22;;;;;;;3.87;3.13;;;14.00;99.90;;;;;;5093958;28;20215;-67
2022/04/27 07:12:49;;;;;;;5.07;2.80;;;14.10;99.90;;;;;;5093814;28;20208;-69
2022/04/27 07:15:17;;;;;;;3.87;2.80;;;14.10;99.90;;;;;;5093981;28;20682;-67
2022/04/27 07:17:44;;;;;;;4.17;2.97;;;14.20;99.90;;;;;;5093766;28;20226;-67
2022/04/27 07:20:11;;;;;;;5.00;2.93;;;14.20;99.90;;;;;;5093844;28;20369;-67
2022/04/27 07:22:38;;;;;;;3.60;3.10;;;14.30;99.90;;;;;;5093658;28;20215;-67
2022/04/27 07:25:05;;;;;;;3.80;3.00;;;14.40;99.90;;;;;;5093375;28;20235;-67
2022/04/27 07:27:32;;;;;;;3.83;3.10;;;14.50;99.90;;;;;;5093372;28;20227;-66
2022/04/27 07:29:59;;;;;;;4.10;3.03;;;14.50;99.90;;;;;;5093491;28;20299;-69
2022/04/27 07:32:28;;;;;;;4.20;3.03;;;14.60;99.90;;;;;;5093582;28;20619;-68
2022/04/27 07:34:55;;;;;;;5.00;2.97;;;14.60;99.90;;;;;;5093376;28;20249;-67
2022/04/27 07:37:21;;;;;;;3.90;3.13;;;14.50;99.90;;;;;;5093487;28;20212;-68
2022/04/27 07:39:48;;;;;;;5.03;3.30;;;14.50;99.90;;;;;;5093196;28;20767;-67
2022/04/27 07:42:15;;;;;;;3.43;2.87;;;14.60;99.90;;;;;;5093301;28;20215;-67
2022/04/27 07:44:42;;;;;;;4.50;2.70;;;14.60;99.90;;;;;;5092780;28;20209;-67
2022/04/27 07:47:09;;;;;;;4.23;3.13;;;14.50;99.90;;;;;;5093303;28;20273;-68
2022/04/27 07:49:37;;;;;;;5.10;2.80;;;14.40;99.90;;;;;;5092948;28;20207;-67
2022/04/27 07:52:05;;;;;;;4.37;3.00;;;14.40;99.90;;;;;;5092863;28;20192;-67
2022/04/27 07:54:31;;;;;;;5.67;3.23;;;14.40;99.90;;;;;;5093359;28;20207;-68
2022/04/27 07:56:58;;;;;;;4.27;3.03;;;14.50;99.90;;;;;;5092880;28;20295;-68
2022/04/27 07:59:25;;;;;;;3.80;2.70;;;14.60;99.90;;;;;;5092785;28;20199;-68
2022/04/27 08:01:52;;;;;;;5.47;3.03;;;14.50;99.90;;;;;;5093439;28;20212;-68
2022/04/27 08:04:19;;;;;;;7.50;3.33;;;14.40;99.90;;;;;;5093331;28;20208;-69
2022/04/27 08:06:47;;;;;;;3.50;2.70;;;14.40;99.90;;;;;;5092885;28;20226;-68
2022/04/27 08:09:14;;;;;;;3.93;3.10;;;14.50;99.90;;;;;;5092298;28;20572;-68
2022/04/27 08:11:41;;;;;;;4.13;2.80;;;14.50;99.90;;;;;;5092737;28;20204;-68
2022/04/27 08:14:08;;;;;;;3.97;2.90;;;14.60;99.90;;;;;;5092942;28;20208;-67
2022/04/27 08:16:35;;;;;;;3.83;2.90;;;14.70;99.90;;;;;;5092647;28;20196;-67
2022/04/27 08:19:02;;;;;;;3.27;2.90;;;14.70;99.90;;;;;;5092430;28;20204;-68
2022/04/27 08:21:29;;;;;;;3.60;2.97;;;14.70;99.90;;;;;;5092534;28;20211;-67
2022/04/27 08:23:59;;;;;;;4.20;3.03;;;14.70;99.90;;;;;;5092651;28;20211;-68
2022/04/27 08:26:26;;;;;;;5.40;2.70;;;14.70;99.90;;;;;;5092236;28;20212;-68
2022/04/27 08:28:53;;;;;;;5.37;3.00;;;14.80;99.90;;;;;;5092462;28;20200;-70
2022/04/27 08:31:20;;;;;;;3.83;2.67;;;14.90;99.90;;;;;;5092501;28;20208;-69
2022/04/27 08:33:47;;;;;;;4.20;3.00;;;14.70;99.90;;;;;;5092144;28;20247;-68
2022/04/27 08:36:14;;;;;;;3.43;2.57;;;14.80;99.90;;;;;;5092307;28;20204;-69
2022/04/27 08:38:40;;;;;;;6.50;3.00;;;14.90;99.90;;;;;;5092168;28;20239;-67
2022/04/27 08:41:09;;;;;;;3.33;2.70;;;15.10;99.90;;;;;;5092144;28;20199;-67
2022/04/27 08:43:36;;;;;;;4.33;3.03;;;15.20;99.90;;;;;;5092237;28;20210;-68
2022/04/27 08:46:04;;;;;;;3.73;2.90;;;15.40;99.90;;;;;;5092269;28;20200;-67
2022/04/27 08:48:31;;;;;;;3.30;2.50;;;15.50;99.90;;;;;;5091795;28;20208;-68
2022/04/27 08:51:00;;;;;;;3.27;2.50;;;15.60;99.90;;;;;;5091943;28;20770;-67
2022/04/27 08:53:28;;;;;;;3.10;2.60;;;15.70;99.90;;;;;;5092310;28;20250;-67
2022/04/27 08:55:55;;;;;;;3.10;2.70;;;15.70;99.90;;;;;;5091942;28;20204;-67
2022/04/27 08:58:24;;;;;;;4.37;2.47;;;15.70;99.90;;;;;;5092074;28;20211;-68
2022/04/27 09:00:51;;;;;;;3.27;2.70;;;15.70;99.90;;;;;;5091924;28;20216;-68
2022/04/27 09:03:23;;;;;;;4.00;2.80;;;15.70;99.90;;;;;;5091770;28;20204;-67
2022/04/27 09:05:51;;;;;;;4.20;2.60;;;15.80;99.90;;;;;;5091916;28;20211;-68
2022/04/27 09:08:18;;;;;;;4.00;2.63;;;15.80;99.90;;;;;;5092057;28;20253;-68
2022/04/27 09:10:45;;;;;;;3.33;2.40;;;15.90;99.90;;;;;;5091919;28;20674;-69
2022/04/27 09:13:12;;;;;;;4.37;2.47;;;15.80;99.90;;;;;;5091857;28;20208;-68
2022/04/27 09:15:41;;;;;;;6.43;2.47;;;15.90;99.90;;;;;;5091621;28;20221;-68
2022/04/27 09:21:01;;;;;;;3.47;2.53;;;16.00;99.90;;;;;;5090837;28;20196;-68
2022/04/27 09:23:36;;;;;;;6.23;2.93;;;16.00;99.90;;;;;;5091894;28;20681;-68
2022/04/27 09:26:15;;;;;;;3.53;2.40;;;16.00;99.90;;;;;;5091548;28;20184;-67
2022/04/27 09:28:47;;;;;;;3.87;2.30;;;16.10;99.90;;;;;;5091660;28;20249;-67
2022/04/27 09:31:27;;;;;;;4.67;2.63;;;16.10;99.90;;;;;;5091808;28;20661;-67
2022/04/27 09:34:01;;;;;;;4.57;2.63;;;16.10;99.90;;;;;;5091774;28;20275;-68
2022/04/27 09:36:28;;;;;;;3.53;2.30;;;16.10;99.90;;;;;;5091476;28;20199;-68
2022/04/27 09:38:57;;;;;;;3.77;2.53;;;16.00;99.90;;;;;;5091600;28;20231;-68
2022/04/27 09:41:38;;;;;;;4.97;2.63;;;15.90;99.90;;;;;;5091346;28;20251;-67
2022/04/27 09:44:05;;;;;;;2.30;2.00;;;15.90;99.90;;;;;;5091380;28;20435;-69
2022/04/27 09:46:40;;;;;;;2.90;2.20;;;15.80;99.90;;;;;;5091058;28;20220;-67
2022/04/27 09:49:11;;;;;;;2.63;2.43;;;15.80;99.90;;;;;;5091710;28;20527;-68
2022/04/27 09:51:46;;;;;;;3.33;2.37;;;15.80;99.90;;;;;;5091103;28;20254;-69
2022/04/27 09:54:17;;;;;;;2.60;1.93;;;15.70;99.90;;;;;;5091653;28;20530;-69
2022/04/27 09:56:47;;;;;;;2.97;2.17;;;15.80;99.90;;;;;;5091650;28;20189;-69
2022/04/27 09:59:16;;;;;;;3.80;2.20;;;15.80;99.90;;;;;;5091806;28;20204;-68
2022/04/27 10:01:46;;;;;;;3.83;2.20;;;15.80;99.90;;;;;;5091523;28;20208;-69
2022/04/27 10:04:14;;;;;;;6.57;2.50;;;15.80;99.90;;;;;;5091327;28;20565;-67
2022/04/27 10:06:41;;;;;;;3.17;2.40;;;15.90;99.90;;;;;;5091038;28;20228;-69
2022/04/27 10:09:09;;;;;;;4.43;2.20;;;16.00;99.90;;;;;;5091019;28;20215;-68
2022/04/27 10:11:38;;;;;;;3.97;2.40;;;16.10;99.90;;;;;;5090909;28;20235;-67
2022/04/27 10:14:05;;;;;;;2.50;2.00;;;16.10;99.90;;;;;;5091416;28;20219;-68
2022/04/27 10:16:32;;;;;;;5.60;2.70;;;16.00;99.90;;;;;;5091431;28;20665;-67
2022/04/27 10:19:00;;;;;;;2.70;2.20;;;16.00;99.90;;;;;;5091024;28;20206;-68
2022/04/27 10:21:43;;;;;;;3.90;2.47;;;16.10;99.90;;;;;;5091142;28;20204;-69
2022/04/27 10:24:11;;;;;;;2.60;2.20;;;16.20;99.90;;;;;;5091113;28;20193;-68
2022/04/27 10:26:39;;;;;;;2.70;2.10;;;16.20;99.90;;;;;;5091070;28;20297;-68
2022/04/27 10:29:08;;;;;;;3.00;2.20;;;16.30;99.90;;;;;;5091142;28;20200;-67
2022/04/27 10:31:57;;;;;;;4.23;2.07;;;16.30;99.90;;;;;;5092101;28;20211;-68
2022/04/27 10:34:25;;;;;;;2.03;1.83;;;16.30;99.90;;;;;;5094556;28;20295;-69
2022/04/27 10:36:53;;;;;;;2.77;2.03;;;16.40;99.90;;;;;;5094447;28;20257;-68
2022/04/27 10:39:21;;;;;;;3.07;1.77;;;16.30;99.90;;;;;;5094128;28;20234;-68
2022/04/27 10:41:57;;;;;;;2.80;2.20;;;16.40;99.90;;;;;;5094686;28;20204;-68
2022/04/27 10:45:04;;;;;;;3.00;2.50;;;16.40;99.90;;;;;;5094072;28;20224;-67
2022/04/27 10:47:35;;;;;;;2.97;2.10;;;16.40;99.90;;;;;;5094407;28;20213;-68
2022/04/27 10:50:28;;;;;;;3.43;1.90;;;16.40;99.90;;;;;;5094314;28;20236;-69
2022/04/27 10:52:56;;;;;;;3.00;2.17;;;16.30;99.80;;;;;;5094292;28;20192;-68
2022/04/27 10:55:47;;;;;;;3.33;2.20;;;16.30;99.70;;;;;;5093880;28;20209;-69
2022/04/27 10:58:16;;;;;;;2.90;2.10;;;16.30;98.40;;;;;;5093862;28;20230;-68
2022/04/27 11:01:25;;;;;;;3.20;1.93;;;16.30;97.60;;;;;;5094210;28;20204;-68
2022/04/27 11:04:13;;;;;;;2.27;1.80;;;16.50;96.90;;;;;;5094132;28;20613;-68
2022/04/27 11:07:25;;;;;;;2.00;1.63;;;16.60;95.80;;;;;;5094154;28;20196;-68
2022/04/27 11:10:14;;;;;;;8.33;1.70;;;16.70;95.30;;;;;;5094127;28;20553;-67
2022/04/27 11:12:44;;;;;;;3.83;2.10;;;16.80;95.60;;;;;;5094054;28;20198;-68
2022/04/27 11:15:12;;;;;;;3.17;1.50;;;16.90;93.70;;;;;;5093706;28;20247;-69
2022/04/27 11:17:40;;;;;;;3.70;1.90;;;16.90;92.60;;;;;;5093959;28;20279;-68
2022/04/27 11:20:22;;;;;;;2.33;1.60;;;17.00;92.60;;;;;;5093673;28;20208;-68
2022/04/27 11:22:49;;;;;;;2.27;1.40;;;17.00;91.50;;;;;;5093531;28;20193;-69
2022/04/27 11:25:28;;;;;;;2.70;1.70;;;17.00;88.90;;;;;;5093316;28;20296;-67
2022/04/27 11:27:55;;;;;;;2.83;1.70;;;17.00;91.40;;;;;;5093573;28;20541;-68
2022/04/27 11:30:23;;;;;;;3.53;1.90;;;17.00;92.60;;;;;;5093549;28;20202;-67
2022/04/27 11:32:51;;;;;;;1.63;1.43;;;16.90;91.60;;;;;;5093667;28;20699;-68
2022/04/27 11:35:22;;;;;;;1.77;1.60;;;16.80;91.00;;;;;;5093585;28;20201;-68
2022/04/27 11:37:49;;;;;;;1.70;1.60;;;16.90;92.10;;;;;;5093520;28;20311;-68
2022/04/27 11:40:18;;;;;;;2.73;2.00;;;16.90;91.90;;;;;;5093176;28;20215;-68
2022/04/27 11:42:47;;;;;;;1.93;1.60;;;17.00;91.60;;;;;;5093021;28;20229;-67
2022/04/27 11:45:18;;;;;;;1.70;1.50;;;17.10;91.20;;;;;;5093211;28;20666;-69
2022/04/27 11:47:45;;;;;;;1.93;1.40;;;17.10;87.70;;;;;;5093344;28;20568;-68
2022/04/27 11:50:12;;;;;;;3.10;1.70;;;17.10;84.90;;;;;;5092847;28;20254;-67
2022/04/27 11:52:38;;;;;;;1.93;1.50;;;17.10;85.90;;;;;;5093324;28;20200;-69
2022/04/27 11:55:10;;;;;;;2.07;1.70;;;17.10;87.80;;;;;;5093169;28;20210;-68
2022/04/27 11:57:39;;;;;;;1.70;1.50;;;17.10;87.40;;;;;;5093361;28;20231;-68
2022/04/27 12:00:08;;;;;;;4.90;1.97;;;17.20;88.40;;;;;;5093044;28;20205;-68
2022/04/27 12:02:35;;;;;;;1.93;1.67;;;17.20;88.10;;;;;;5093288;28;20205;-68
2022/04/27 12:05:04;;;;;;;2.03;1.50;;;17.10;88.50;;;;;;5092670;28;20212;-68
2022/04/27 12:07:37;;;;;;;2.43;1.80;;;17.20;89.60;;;;;;5093058;28;20841;-68
2022/04/27 12:10:05;;;;;;;3.90;1.77;;;17.30;90.70;;;;;;5092605;28;20209;-68
2022/04/27 12:12:33;;;;;;;1.97;1.60;;;17.40;91.00;;;;;;5093021;28;20206;-69
2022/04/27 12:15:05;;;;;;;3.20;2.13;;;17.50;90.80;;;;;;5092762;28;20205;-67
2022/04/27 12:17:49;;;;;;;2.70;1.70;;;17.50;91.00;;;;;;5092703;28;20241;-69
2022/04/27 12:20:31;;;;;;;2.53;1.60;;;17.70;88.40;;;;;;5092395;28;20191;-68
2022/04/27 12:23:00;;;;;;;2.80;1.57;;;17.70;82.50;;;;;;5092444;28;20202;-67
2022/04/27 12:25:35;;;;;;;2.83;1.47;;;17.80;82.80;;;;;;5092704;28;20217;-68
2022/04/27 12:28:03;;;;;;;5.10;1.80;;;17.90;85.80;;;;;;5092568;28;20234;-67
2022/04/27 12:30:30;;;;;;;1.77;1.50;;;17.90;85.70;;;;;;5092258;28;20211;-67
2022/04/27 12:32:59;;;;;;;2.03;1.70;;;17.90;86.80;;;;;;5092210;28;20220;-68
2022/04/27 12:38:18;;;;;;;1.80;1.50;;;18.10;86.20;;;;;;5092196;28;20607;-68
2022/04/27 12:40:45;;;;;;;3.13;1.80;;;18.10;84.10;;;;;;5092584;28;20218;-68
2022/04/27 12:43:14;;;;;;;3.33;1.80;;;18.00;81.70;;;;;;5092165;28;20201;-68
2022/04/27 12:46:01;;;;;;;2.00;1.57;;;17.80;82.50;;;;;;5092479;28;20279;-68
2022/04/27 12:48:31;;;;;;;2.30;1.77;;;17.60;80.30;;;;;;5092393;28;20289;-68
2022/04/27 12:50:59;;;;;;;1.93;1.50;;;17.60;81.70;;;;;;5091838;28;20228;-69
2022/04/27 12:53:26;;;;;;;2.87;1.53;;;17.60;82.30;;;;;;5092303;28;20211;-69
2022/04/27 12:56:09;;;;;;;2.20;1.50;;;17.60;81.70;;;;;;5091605;28;20212;-69
2022/04/27 12:58:36;;;;;;;3.50;1.70;;;17.60;83.00;;;;;;5092300;28;20190;-69
2022/04/27 13:01:03;;;;;;;3.70;1.70;;;17.60;82.70;;;;;;5091947;28;20207;-68
2022/04/27 13:03:32;;;;;;;1.80;1.50;;;17.80;82.60;;;;;;5091955;28;20206;-69
2022/04/27 13:05:58;;;;;;;2.40;1.70;;;17.80;81.20;;;;;;5091584;28;20210;-69
2022/04/27 13:08:25;;;;;;;2.90;1.70;;;17.90;81.00;;;;;;5092001;28;20496;-68
2022/04/27 13:13:37;;;;;;;2.10;1.50;;;17.80;87.10;;;;;;5091677;28;20319;-70
2022/04/27 13:16:05;;;;;;;2.73;1.53;;;17.60;85.60;;;;;;5091643;28;20208;-69
2022/04/27 13:18:33;;;;;;;2.20;1.80;;;17.50;85.20;;;;;;5092004;28;20681;-68
2022/04/27 13:21:00;;;;;;;2.67;1.70;;;17.50;86.00;;;;;;5091802;28;20350;-69